Serenade Of The Seas — C6FV8 — position and weather

sailwx.info

Track history (hours):
 
Tides and Currents Weather Stations Pressure Air Temp Water Temp Dewpoint Dewpoint Depression Visibility Wind Speed Wind Dir Waves Ship Positions

Serenade Of The Seas

Operator: Royal Caribbean Cruises Ltd

Last reported at 2019-Mar-25 22:41 UTC. Time now 2019-Mar-25 23:52 UTC.
Position N 26°12' W 079°27'.

Length 294 m; draft 8.5 m.

Type: Ship. MMSI: 311492000.

Date/timePositionNaut miles runAvg speedWind from/ knotsBaromVisibWave heightAir tempDewpointWater temp
2019-Mar-25 22:41N 26°12' W 079°27'315.1
2019-Mar-25 22:30N 26°11' W 079°30'715.1
2019-Mar-25 22:00N 26°10' W 079°38'714.8
2019-Mar-25 21:30N 26°09' W 079°46'815.2
2019-Mar-25 21:00N 26°07' W 079°55'714.8
2019-Mar-25 20:30N 26°07' W 080°03'4 7.8
2019-Mar-25 20:01N 26°05' W 080°07'0 0.4
2019-Mar-25 19:29N 26°05' W 080°07'0 0.0
2019-Mar-25 18:59N 26°05' W 080°07'0 0.0
2019-Mar-25 18:29N 26°05' W 080°07'0 0.0
2019-Mar-25 17:59N 26°05' W 080°07'0 0.0
2019-Mar-25 17:26N 26°05' W 080°07'0 0.0
2019-Mar-25 16:59N 26°05' W 080°07'0 0.0
2019-Mar-25 16:29N 26°05' W 080°07'0 0.0
2019-Mar-25 15:59N 26°05' W 080°07'0 0.0
2019-Mar-25 15:29N 26°05' W 080°07'0 0.0
2019-Mar-25 14:59N 26°05' W 080°07'0 0.0
2019-Mar-25 14:29N 26°05' W 080°07'0 0.0
2019-Mar-25 13:59N 26°05' W 080°07'0 0.0
2019-Mar-25 13:29N 26°05' W 080°07'0 0.0
2019-Mar-25 12:59N 26°05' W 080°07'0 0.0
2019-Mar-25 12:29N 26°05' W 080°07'0 0.0
2019-Mar-25 11:59N 26°05' W 080°07'0 0.0
2019-Mar-25 11:29N 26°05' W 080°07'0 0.0
2019-Mar-25 10:59N 26°05' W 080°07'0 0.0
2019-Mar-25 10:29N 26°05' W 080°07'0 0.7
2019-Mar-25 10:00N 26°05' W 080°07'4 8.8
2019-Mar-25 09:30N 26°06' W 080°02'714.8
2019-Mar-25 09:00N 26°07' W 079°54'917.0
2019-Mar-25 08:27N 26°09' W 079°44'4518.2
2019-Mar-25 06:00N 26°12' W 078°54'32217.9 100 / 141016.0 23.0 26.0
2019-Mar-24 12:00N 24°00' W 073°30'10317.2 090 / 301017.0 23.0 26.0
2019-Mar-24 06:00N 23°06' W 071°54'32217.9 070 / 301015.0 24.0 26.0
2019-Mar-23 12:00N 20°24' W 066°54'5919.6 100 / 131014.0 26.0 27.0
2019-Mar-23 09:00N 19°54' W 066°00'17816.9 100 / 131012.0 25.0 27.0
2019-Mar-22 22:29N 18°13' W 063°26'1218.8
2019-Mar-22 21:51N 18°05' W 063°16'816.4
2019-Mar-22 21:23N 18°01' W 063°09'613.5
2019-Mar-22 20:56N 18°00' W 063°03'0 0.1
2019-Mar-22 18:54N 18°01' W 063°03'0 0.0
2019-Mar-22 17:36N 18°01' W 063°03'0 0.0
2019-Mar-22 14:54N 18°01' W 063°03'0 0.0
2019-Mar-22 13:57N 18°01' W 063°03'0 0.0
2019-Mar-22 13:00N 18°01' W 063°03'0 0.0
2019-Mar-22 12:00N 18°01' W 063°03'0 0.0
2019-Mar-22 11:00N 18°01' W 063°03'1 1.6
2019-Mar-22 10:17N 18°00' W 063°04'6 8.1
2019-Mar-22 09:32N 17°60' W 063°10'1 8.4
2019-Mar-22 09:22N 17°59' W 063°12'5 8.1
2019-Mar-22 08:47N 17°59' W 063°17'3 8.3
2019-Mar-22 08:26N 17°59' W 063°20'4 8.4
2019-Mar-22 07:56N 17°58' W 063°24'13 2.8
2019-Mar-22 03:14N 17°46' W 063°20'2 8.4
2019-Mar-22 03:00N 17°45' W 063°18'4 8.4
2019-Mar-22 02:30N 17°44' W 063°14'4 8.5
2019-Mar-22 01:58N 17°41' W 063°11'4 8.8
2019-Mar-22 01:30N 17°37' W 063°09'4 8.7
2019-Mar-22 01:00N 17°33' W 063°07'5 8.7
2019-Mar-22 00:27N 17°29' W 063°05'4 8.8
2019-Mar-22 00:00N 17°26' W 063°02'3600.2
2019-Mar-22 00:00N 17°24' W 063°00'3 4.5 070 / 171011.0 24.0 27.0
2019-Mar-21 23:23N 17°23' W 062°58'22 1.5
2019-Mar-21 07:55N 17°01' W 062°51'4 7.4
2019-Mar-21 07:20N 16°57' W 062°50'43 5.9
2019-Mar-21 00:00N 17°06' W 062°06'64 3.4 070 / 151011.0 26.0 27.0
2019-Mar-20 05:19N 17°40' W 063°03'412.8
2019-Mar-20 04:59N 17°42' W 063°07'713.0
2019-Mar-20 04:29N 17°44' W 063°14'713.2
2019-Mar-20 03:59N 17°46' W 063°20'713.2
2019-Mar-20 03:29N 17°49' W 063°26'612.8
2019-Mar-20 02:59N 17°50' W 063°33'3712.5
2019-Mar-20 00:00N 17°48' W 064°12'49 2.0 100 / 201010.0 26.0 27.0
2019-Mar-19 00:00N 18°06' W 065°00'186 7.8 110 / 151011.0 25.0 27.0
2019-Mar-18 00:00N 20°00' W 067°36'9515.9 100 / 101012.0 25.0 27.0
2019-Mar-17 18:00N 20°54' W 069°00'27915.5 140 / 111011.0 25.017.527.0
2019-Mar-17 00:00N 23°36' W 073°06'8614.3 100 / 101013.0 25.0 27.0
2019-Mar-16 18:00N 24°24' W 074°24'27715.4 100 / 111014.0 25.015.127.0
2019-Mar-16 00:00N 26°12' W 079°06'2017.1 140 / 151014.0 24.0 27.0
2019-Mar-15 22:49N 26°11' W 079°28'  
Track history (hours):
 
Tides and Currents Weather Stations Pressure Air Temp Water Temp Dewpoint Dewpoint Depression Visibility Wind Speed Wind Dir Waves Ship Positions

Serenade Of The Seas

Operator: Royal Caribbean Cruises Ltd

Last reported at 2019-Mar-25 22:41 UTC. Time now 2019-Mar-25 23:52 UTC.
Position N 26°12' W 079°27'.

Length 294 m; draft 8.5 m.

Type: Ship. MMSI: 311492000.

Date/timePositionNaut miles runAvg speedWind from/ knotsBaromVisibWave heightAir tempDewpointWater temp
2019-Mar-25 22:41N 26°12' W 079°27'315.1
2019-Mar-25 22:30N 26°11' W 079°30'715.1
2019-Mar-25 22:00N 26°10' W 079°38'714.8
2019-Mar-25 21:30N 26°09' W 079°46'815.2
2019-Mar-25 21:00N 26°07' W 079°55'714.8
2019-Mar-25 20:30N 26°07' W 080°03'4 7.8
2019-Mar-25 20:01N 26°05' W 080°07'0 0.4
2019-Mar-25 19:29N 26°05' W 080°07'0 0.0
2019-Mar-25 18:59N 26°05' W 080°07'0 0.0
2019-Mar-25 18:29N 26°05' W 080°07'0 0.0
2019-Mar-25 17:59N 26°05' W 080°07'0 0.0
2019-Mar-25 17:26N 26°05' W 080°07'0 0.0
2019-Mar-25 16:59N 26°05' W 080°07'0 0.0
2019-Mar-25 16:29N 26°05' W 080°07'0 0.0
2019-Mar-25 15:59N 26°05' W 080°07'0 0.0
2019-Mar-25 15:29N 26°05' W 080°07'0 0.0
2019-Mar-25 14:59N 26°05' W 080°07'0 0.0
2019-Mar-25 14:29N 26°05' W 080°07'0 0.0
2019-Mar-25 13:59N 26°05' W 080°07'0 0.0
2019-Mar-25 13:29N 26°05' W 080°07'0 0.0
2019-Mar-25 12:59N 26°05' W 080°07'0 0.0
2019-Mar-25 12:29N 26°05' W 080°07'0 0.0
2019-Mar-25 11:59N 26°05' W 080°07'0 0.0
2019-Mar-25 11:29N 26°05' W 080°07'0 0.0
2019-Mar-25 10:59N 26°05' W 080°07'0 0.0
2019-Mar-25 10:29N 26°05' W 080°07'0 0.7
2019-Mar-25 10:00N 26°05' W 080°07'4 8.8
2019-Mar-25 09:30N 26°06' W 080°02'714.8
2019-Mar-25 09:00N 26°07' W 079°54'917.0
2019-Mar-25 08:27N 26°09' W 079°44'4518.2
2019-Mar-25 06:00N 26°12' W 078°54'32217.9 100 / 141016.0 23.0 26.0
2019-Mar-24 12:00N 24°00' W 073°30'10317.2 090 / 301017.0 23.0 26.0
2019-Mar-24 06:00N 23°06' W 071°54'32217.9 070 / 301015.0 24.0 26.0
2019-Mar-23 12:00N 20°24' W 066°54'5919.6 100 / 131014.0 26.0 27.0
2019-Mar-23 09:00N 19°54' W 066°00'17816.9 100 / 131012.0 25.0 27.0
2019-Mar-22 22:29N 18°13' W 063°26'1218.8
2019-Mar-22 21:51N 18°05' W 063°16'816.4
2019-Mar-22 21:23N 18°01' W 063°09'613.5
2019-Mar-22 20:56N 18°00' W 063°03'0 0.1
2019-Mar-22 18:54N 18°01' W 063°03'0 0.0
2019-Mar-22 17:36N 18°01' W 063°03'0 0.0
2019-Mar-22 14:54N 18°01' W 063°03'0 0.0
2019-Mar-22 13:57N 18°01' W 063°03'0 0.0
2019-Mar-22 13:00N 18°01' W 063°03'0 0.0
2019-Mar-22 12:00N 18°01' W 063°03'0 0.0
2019-Mar-22 11:00N 18°01' W 063°03'1 1.6
2019-Mar-22 10:17N 18°00' W 063°04'6 8.1
2019-Mar-22 09:32N 17°60' W 063°10'1 8.4
2019-Mar-22 09:22N 17°59' W 063°12'5 8.1
2019-Mar-22 08:47N 17°59' W 063°17'3 8.3
2019-Mar-22 08:26N 17°59' W 063°20'4 8.4
2019-Mar-22 07:56N 17°58' W 063°24'13 2.8
2019-Mar-22 03:14N 17°46' W 063°20'2 8.4
2019-Mar-22 03:00N 17°45' W 063°18'4 8.4
2019-Mar-22 02:30N 17°44' W 063°14'4 8.5
2019-Mar-22 01:58N 17°41' W 063°11'4 8.8
2019-Mar-22 01:30N 17°37' W 063°09'4 8.7
2019-Mar-22 01:00N 17°33' W 063°07'5 8.7
2019-Mar-22 00:27N 17°29' W 063°05'4 8.8
2019-Mar-22 00:00N 17°26' W 063°02'3600.2
2019-Mar-22 00:00N 17°24' W 063°00'3 4.5 070 / 171011.0 24.0 27.0
2019-Mar-21 23:23N 17°23' W 062°58'22 1.5
2019-Mar-21 07:55N 17°01' W 062°51'4 7.4
2019-Mar-21 07:20N 16°57' W 062°50'43 5.9
2019-Mar-21 00:00N 17°06' W 062°06'64 3.4 070 / 151011.0 26.0 27.0
2019-Mar-20 05:19N 17°40' W 063°03'412.8
2019-Mar-20 04:59N 17°42' W 063°07'713.0
2019-Mar-20 04:29N 17°44' W 063°14'713.2
2019-Mar-20 03:59N 17°46' W 063°20'713.2
2019-Mar-20 03:29N 17°49' W 063°26'612.8
2019-Mar-20 02:59N 17°50' W 063°33'3712.5
2019-Mar-20 00:00N 17°48' W 064°12'49 2.0 100 / 201010.0 26.0 27.0
2019-Mar-19 00:00N 18°06' W 065°00'186 7.8 110 / 151011.0 25.0 27.0
2019-Mar-18 00:00N 20°00' W 067°36'9515.9 100 / 101012.0 25.0 27.0
2019-Mar-17 18:00N 20°54' W 069°00'27915.5 140 / 111011.0 25.017.527.0
2019-Mar-17 00:00N 23°36' W 073°06'8614.3 100 / 101013.0 25.0 27.0
2019-Mar-16 18:00N 24°24' W 074°24'27715.4 100 / 111014.0 25.015.127.0
2019-Mar-16 00:00N 26°12' W 079°06'2017.1 140 / 151014.0 24.0 27.0
2019-Mar-15 22:49N 26°11' W 079°28'  

Dump ship's entire track history